El Dorado Springs, Missouri
Current Conditions -  °F | °C
As of 2:15 AM on Monday 24 Nov 2014 (Local Time) from KGLY Reporting Station
Scattered Clouds Scattered Clouds  
Wind Chill: 35°   Ceiling: Unl
Heat Index: 43°   Visibility: 10mi
Dew Point: 34°   Wind: 15mph
Humidity: 70%   Direction: 290°WNW
Pressure: 29.54"   Gusts: 18mph
Location:  37.88°N, 94.02°W
Report Text: KGLY 240815Z AUTO 29013G16KT 10SM FEW036 SCT120 06/01 A2954 RMK AO2
Loading
Personal Weather Stations






























Interactive Weather Map New forecast layout! Learn more

10-Day Weather Forecast

Advertisements
Track Severe Weather on mobile